sensor_id;sensor_type;location;lat;lon;timestamp;pressure;altitude;pressure_sealevel;temperature;humidity
7888;BME280;3989;48.810;9.208;2022-11-20T00:02:16;98297.47;;;4.26;nan
7888;BME280;3989;48.810;9.208;2022-11-20T00:04:43;98320.63;;;4.32;nan
7888;BME280;3989;48.810;9.208;2022-11-20T00:07:10;98313.44;;;4.24;nan
7888;BME280;3989;48.810;9.208;2022-11-20T00:09:36;98264.94;;;3.90;nan
7888;BME280;3989;48.810;9.208;2022-11-20T00:12:03;98321.97;;;4.18;nan
7888;BME280;3989;48.810;9.208;2022-11-20T00:14:30;98290.41;;;3.99;nan
7888;BME280;3989;48.810;9.208;2022-11-20T00:16:59;98319.56;;;4.24;nan
7888;BME280;3989;48.810;9.208;2022-11-20T00:19:25;98250.28;;;3.78;nan
7888;BME280;3989;48.810;9.208;2022-11-20T00:21:52;98306.53;;;4.23;nan
7888;BME280;3989;48.810;9.208;2022-11-20T00:24:20;98327.41;;;4.34;nan
7888;BME280;3989;48.810;9.208;2022-11-20T00:26:47;98317.69;;;4.35;nan
7888;BME280;3989;48.810;9.208;2022-11-20T00:29:14;98294.28;;;4.22;nan
7888;BME280;3989;48.810;9.208;2022-11-20T00:31:40;98323.63;;;4.37;nan
7888;BME280;3989;48.810;9.208;2022-11-20T00:34:09;98315.56;;;4.38;nan
7888;BME280;3989;48.810;9.208;2022-11-20T00:36:35;98311.25;;;4.37;nan
7888;BME280;3989;48.810;9.208;2022-11-20T00:39:02;98313.06;;;4.37;nan
7888;BME280;3989;48.810;9.208;2022-11-20T00:41:29;98313.78;;;4.39;nan
7888;BME280;3989;48.810;9.208;2022-11-20T00:43:56;98312.09;;;4.38;nan
7888;BME280;3989;48.810;9.208;2022-11-20T00:46:24;98317.25;;;4.39;nan
7888;BME280;3989;48.810;9.208;2022-11-20T00:48:51;98315.09;;;4.43;nan
7888;BME280;3989;48.810;9.208;2022-11-20T00:51:20;98319.72;;;4.41;nan
7888;BME280;3989;48.810;9.208;2022-11-20T00:53:47;98313.47;;;4.42;nan
7888;BME280;3989;48.810;9.208;2022-11-20T00:56:15;98315.28;;;4.41;nan
7888;BME280;3989;48.810;9.208;2022-11-20T00:58:44;98317.59;;;4.44;nan
7888;BME280;3989;48.810;9.208;2022-11-20T01:01:13;98314.44;;;4.41;nan
7888;BME280;3989;48.810;9.208;2022-11-20T01:03:41;98313.78;;;4.39;nan
7888;BME280;3989;48.810;9.208;2022-11-20T01:06:11;98306.44;;;4.33;nan
7888;BME280;3989;48.810;9.208;2022-11-20T01:08:39;98306.75;;;4.30;nan
7888;BME280;3989;48.810;9.208;2022-11-20T01:11:09;98287.19;;;4.05;nan
7888;BME280;3989;48.810;9.208;2022-11-20T01:13:36;98315.84;;;4.17;nan
7888;BME280;3989;48.810;9.208;2022-11-20T01:16:04;98303.31;;;4.02;nan
7888;BME280;3989;48.810;9.208;2022-11-20T01:18:30;98310.03;;;3.96;nan
7888;BME280;3989;48.810;9.208;2022-11-20T01:21:00;98240.28;;;3.54;nan
7888;BME280;3989;48.810;9.208;2022-11-20T01:23:30;98326.78;;;4.05;nan
7888;BME280;3989;48.810;9.208;2022-11-20T01:25:59;98305.94;;;3.84;nan
7888;BME280;3989;48.810;9.208;2022-11-20T01:28:26;98311.06;;;3.86;nan
7888;BME280;3989;48.810;9.208;2022-11-20T01:30:52;98328.66;;;3.95;nan
7888;BME280;3989;48.810;9.208;2022-11-20T01:33:19;98325.47;;;3.91;nan
7888;BME280;3989;48.810;9.208;2022-11-20T01:35:46;98324.84;;;3.80;nan
7888;BME280;3989;48.810;9.208;2022-11-20T01:38:12;98315.50;;;3.67;nan
7888;BME280;3989;48.810;9.208;2022-11-20T01:40:39;98330.28;;;3.78;nan
7888;BME280;3989;48.810;9.208;2022-11-20T01:43:14;98340.94;;;3.86;nan
7888;BME280;3989;48.810;9.208;2022-11-20T01:46:04;98334.69;;;3.87;nan
7888;BME280;3989;48.810;9.208;2022-11-20T01:48:35;98340.34;;;3.92;nan
7888;BME280;3989;48.810;9.208;2022-11-20T01:51:04;98333.25;;;3.93;nan
7888;BME280;3989;48.810;9.208;2022-11-20T01:53:34;98291.75;;;3.67;nan
7888;BME280;3989;48.810;9.208;2022-11-20T01:56:05;98322.16;;;3.89;nan
7888;BME280;3989;48.810;9.208;2022-11-20T01:58:42;98332.84;;;3.97;nan
7888;BME280;3989;48.810;9.208;2022-11-20T02:01:10;98325.16;;;4.04;nan
7888;BME280;3989;48.810;9.208;2022-11-20T02:03:37;98330.13;;;4.07;nan
7888;BME280;3989;48.810;9.208;2022-11-20T02:06:07;98317.50;;;4.01;nan
7888;BME280;3989;48.810;9.208;2022-11-20T02:08:37;98328.00;;;4.10;nan
7888;BME280;3989;48.810;9.208;2022-11-20T02:11:05;98320.38;;;4.07;nan
7888;BME280;3989;48.810;9.208;2022-11-20T02:13:31;98329.59;;;4.21;nan
7888;BME280;3989;48.810;9.208;2022-11-20T02:16:15;98326.81;;;4.22;nan
7888;BME280;3989;48.810;9.208;2022-11-20T02:18:42;98337.75;;;4.28;nan
7888;BME280;3989;48.810;9.208;2022-11-20T02:21:17;98332.63;;;4.26;nan
7888;BME280;3989;48.810;9.208;2022-11-20T02:23:59;98339.72;;;4.26;nan
7888;BME280;3989;48.810;9.208;2022-11-20T02:26:27;98326.28;;;4.19;nan
7888;BME280;3989;48.810;9.208;2022-11-20T02:28:55;98336.38;;;4.23;nan
7888;BME280;3989;48.810;9.208;2022-11-20T02:31:22;98333.75;;;4.23;nan
7888;BME280;3989;48.810;9.208;2022-11-20T02:33:54;98338.72;;;4.27;nan
7888;BME280;3989;48.810;9.208;2022-11-20T02:36:21;98310.75;;;4.16;nan
7888;BME280;3989;48.810;9.208;2022-11-20T02:38:48;98337.97;;;4.34;nan
7888;BME280;3989;48.810;9.208;2022-11-20T02:41:17;98241.25;;;3.80;nan
7888;BME280;3989;48.810;9.208;2022-11-20T02:43:43;98313.31;;;4.26;nan
7888;BME280;3989;48.810;9.208;2022-11-20T02:46:10;98307.97;;;4.35;nan
7888;BME280;3989;48.810;9.208;2022-11-20T02:48:37;98302.97;;;4.32;nan
7888;BME280;3989;48.810;9.208;2022-11-20T02:51:04;98333.25;;;4.55;nan
7888;BME280;3989;48.810;9.208;2022-11-20T02:53:30;98331.94;;;4.59;nan
7888;BME280;3989;48.810;9.208;2022-11-20T02:55:57;98330.81;;;4.62;nan
7888;BME280;3989;48.810;9.208;2022-11-20T02:58:25;98298.16;;;4.45;nan
7888;BME280;3989;48.810;9.208;2022-11-20T03:00:52;98335.19;;;4.71;nan
7888;BME280;3989;48.810;9.208;2022-11-20T03:03:18;98330.75;;;4.71;nan
7888;BME280;3989;48.810;9.208;2022-11-20T03:05:45;98307.53;;;4.65;nan
7888;BME280;3989;48.810;9.208;2022-11-20T03:08:12;98306.44;;;4.68;nan
7888;BME280;3989;48.810;9.208;2022-11-20T03:10:38;98306.25;;;4.69;nan
7888;BME280;3989;48.810;9.208;2022-11-20T03:13:05;98185.25;;;3.94;nan
7888;BME280;3989;48.810;9.208;2022-11-20T03:15:33;98328.88;;;4.90;nan
7888;BME280;3989;48.810;9.208;2022-11-20T03:17:59;98336.81;;;4.90;nan
7888;BME280;3989;48.810;9.208;2022-11-20T03:20:26;98327.91;;;4.91;nan
7888;BME280;3989;48.810;9.208;2022-11-20T03:22:53;98305.19;;;4.80;nan
7888;BME280;3989;48.810;9.208;2022-11-20T03:25:20;98328.59;;;4.93;nan
7888;BME280;3989;48.810;9.208;2022-11-20T03:27:46;98320.66;;;4.93;nan
7888;BME280;3989;48.810;9.208;2022-11-20T03:30:13;98271.00;;;4.61;nan
7888;BME280;3989;48.810;9.208;2022-11-20T03:32:41;98293.03;;;4.69;nan
7888;BME280;3989;48.810;9.208;2022-11-20T03:35:08;98298.84;;;4.73;nan
7888;BME280;3989;48.810;9.208;2022-11-20T03:37:35;98311.34;;;4.89;nan
7888;BME280;3989;48.810;9.208;2022-11-20T03:40:02;98300.56;;;4.82;nan
7888;BME280;3989;48.810;9.208;2022-11-20T03:42:28;98321.31;;;4.95;nan
7888;BME280;3989;48.810;9.208;2022-11-20T03:45:14;98300.75;;;4.81;nan
7888;BME280;3989;48.810;9.208;2022-11-20T03:47:43;98221.13;;;4.40;nan
7888;BME280;3989;48.810;9.208;2022-11-20T03:50:10;98297.78;;;4.84;nan
7888;BME280;3989;48.810;9.208;2022-11-20T03:52:38;98295.44;;;4.81;nan
7888;BME280;3989;48.810;9.208;2022-11-20T03:55:05;98315.81;;;4.88;nan
7888;BME280;3989;48.810;9.208;2022-11-20T03:57:32;98252.09;;;4.48;nan
7888;BME280;3989;48.810;9.208;2022-11-20T03:59:58;98235.50;;;4.38;nan
7888;BME280;3989;48.810;9.208;2022-11-20T04:02:25;98316.22;;;4.75;nan
7888;BME280;3989;48.810;9.208;2022-11-20T04:04:53;98318.84;;;4.75;nan
7888;BME280;3989;48.810;9.208;2022-11-20T04:07:20;98301.88;;;4.60;nan
7888;BME280;3989;48.810;9.208;2022-11-20T04:09:46;98318.19;;;4.73;nan
7888;BME280;3989;48.810;9.208;2022-11-20T04:12:13;98315.91;;;4.78;nan
7888;BME280;3989;48.810;9.208;2022-11-20T04:14:40;98317.56;;;4.80;nan
7888;BME280;3989;48.810;9.208;2022-11-20T04:17:06;98254.34;;;4.43;nan
7888;BME280;3989;48.810;9.208;2022-11-20T04:19:33;98294.97;;;4.85;nan
7888;BME280;3989;48.810;9.208;2022-11-20T04:22:01;98307.28;;;4.94;nan
7888;BME280;3989;48.810;9.208;2022-11-20T04:24:28;98293.84;;;4.88;nan
7888;BME280;3989;48.810;9.208;2022-11-20T04:26:54;98265.31;;;4.73;nan
7888;BME280;3989;48.810;9.208;2022-11-20T04:29:21;98277.25;;;4.78;nan
7888;BME280;3989;48.810;9.208;2022-11-20T04:31:47;98235.72;;;4.44;nan
7888;BME280;3989;48.810;9.208;2022-11-20T04:34:14;98280.56;;;4.80;nan
7888;BME280;3989;48.810;9.208;2022-11-20T04:36:41;98324.34;;;5.00;nan
7888;BME280;3989;48.810;9.208;2022-11-20T04:39:13;98298.44;;;4.86;nan
7888;BME280;3989;48.810;9.208;2022-11-20T04:41:40;98310.06;;;4.93;nan
7888;BME280;3989;48.810;9.208;2022-11-20T04:44:07;98314.69;;;4.91;nan
7888;BME280;3989;48.810;9.208;2022-11-20T04:46:35;98307.44;;;4.93;nan
7888;BME280;3989;48.810;9.208;2022-11-20T04:49:04;98312.56;;;4.94;nan
7888;BME280;3989;48.810;9.208;2022-11-20T04:51:30;98296.84;;;4.93;nan
7888;BME280;3989;48.810;9.208;2022-11-20T04:53:57;98204.09;;;4.35;nan
7888;BME280;3989;48.810;9.208;2022-11-20T04:56:25;98177.34;;;4.12;nan
7888;BME280;3989;48.810;9.208;2022-11-20T04:58:52;98259.16;;;4.65;nan
7888;BME280;3989;48.810;9.208;2022-11-20T05:01:21;98262.81;;;4.72;nan
7888;BME280;3989;48.810;9.208;2022-11-20T05:03:48;98303.38;;;5.06;nan
7888;BME280;3989;48.810;9.208;2022-11-20T05:06:17;98198.72;;;4.44;nan
7888;BME280;3989;48.810;9.208;2022-11-20T05:08:44;98311.16;;;5.08;nan
7888;BME280;3989;48.810;9.208;2022-11-20T05:11:12;98291.31;;;5.04;nan
7888;BME280;3989;48.810;9.208;2022-11-20T05:13:43;98304.75;;;5.10;nan
7888;BME280;3989;48.810;9.208;2022-11-20T05:16:15;98193.78;;;4.49;nan
7888;BME280;3989;48.810;9.208;2022-11-20T05:18:42;98311.22;;;5.16;nan
7888;BME280;3989;48.810;9.208;2022-11-20T05:21:09;98294.81;;;5.12;nan
7888;BME280;3989;48.810;9.208;2022-11-20T05:23:37;98257.19;;;4.93;nan
7888;BME280;3989;48.810;9.208;2022-11-20T05:26:08;98298.50;;;5.19;nan
7888;BME280;3989;48.810;9.208;2022-11-20T05:28:38;98318.34;;;5.23;nan
7888;BME280;3989;48.810;9.208;2022-11-20T05:31:09;98305.81;;;5.25;nan
7888;BME280;3989;48.810;9.208;2022-11-20T05:33:36;98269.25;;;4.95;nan
7888;BME280;3989;48.810;9.208;2022-11-20T05:36:04;98301.69;;;5.23;nan
7888;BME280;3989;48.810;9.208;2022-11-20T05:38:31;98270.97;;;5.04;nan
7888;BME280;3989;48.810;9.208;2022-11-20T05:41:03;98278.78;;;5.14;nan
7888;BME280;3989;48.810;9.208;2022-11-20T05:43:31;98187.59;;;4.58;nan
7888;BME280;3989;48.810;9.208;2022-11-20T05:45:58;98229.41;;;4.89;nan
7888;BME280;3989;48.810;9.208;2022-11-20T05:48:26;98266.06;;;5.09;nan
7888;BME280;3989;48.810;9.208;2022-11-20T05:50:53;98286.59;;;5.23;nan
7888;BME280;3989;48.810;9.208;2022-11-20T05:53:19;98289.25;;;5.23;nan
7888;BME280;3989;48.810;9.208;2022-11-20T05:55:46;98242.81;;;4.95;nan
7888;BME280;3989;48.810;9.208;2022-11-20T05:58:13;98302.75;;;5.38;nan
7888;BME280;3989;48.810;9.208;2022-11-20T06:00:39;98217.97;;;4.88;nan
7888;BME280;3989;48.810;9.208;2022-11-20T06:03:06;98293.13;;;5.37;nan
7888;BME280;3989;48.810;9.208;2022-11-20T06:05:34;98302.94;;;5.45;nan
7888;BME280;3989;48.810;9.208;2022-11-20T06:08:01;98184.56;;;4.79;nan
7888;BME280;3989;48.810;9.208;2022-11-20T06:10:28;98304.13;;;5.50;nan
7888;BME280;3989;48.810;9.208;2022-11-20T06:12:57;98267.84;;;5.35;nan
7888;BME280;3989;48.810;9.208;2022-11-20T06:15:24;98301.16;;;5.53;nan
7888;BME280;3989;48.810;9.208;2022-11-20T06:17:52;98236.97;;;5.17;nan
7888;BME280;3989;48.810;9.208;2022-11-20T06:20:18;98287.91;;;5.53;nan
7888;BME280;3989;48.810;9.208;2022-11-20T06:22:46;98298.88;;;5.58;nan
7888;BME280;3989;48.810;9.208;2022-11-20T06:25:13;98212.19;;;5.10;nan
7888;BME280;3989;48.810;9.208;2022-11-20T06:27:40;98225.09;;;5.13;nan
7888;BME280;3989;48.810;9.208;2022-11-20T06:30:08;98287.06;;;5.45;nan
7888;BME280;3989;48.810;9.208;2022-11-20T06:32:35;98258.53;;;5.30;nan
7888;BME280;3989;48.810;9.208;2022-11-20T06:35:01;98232.19;;;5.13;nan
7888;BME280;3989;48.810;9.208;2022-11-20T06:37:28;98225.19;;;5.04;nan
7888;BME280;3989;48.810;9.208;2022-11-20T06:39:56;98275.09;;;5.33;nan
7888;BME280;3989;48.810;9.208;2022-11-20T06:42:23;98219.75;;;5.05;nan
7888;BME280;3989;48.810;9.208;2022-11-20T06:44:49;98199.34;;;4.90;nan
7888;BME280;3989;48.810;9.208;2022-11-20T06:47:16;98298.47;;;5.45;nan
7888;BME280;3989;48.810;9.208;2022-11-20T06:49:43;98233.06;;;4.96;nan
7888;BME280;3989;48.810;9.208;2022-11-20T06:52:09;98303.91;;;5.44;nan
7888;BME280;3989;48.810;9.208;2022-11-20T06:54:36;98250.19;;;5.09;nan
7888;BME280;3989;48.810;9.208;2022-11-20T06:57:04;98244.38;;;5.06;nan
7888;BME280;3989;48.810;9.208;2022-11-20T06:59:31;98256.66;;;5.15;nan
7888;BME280;3989;48.810;9.208;2022-11-20T07:01:57;98294.16;;;5.36;nan
7888;BME280;3989;48.810;9.208;2022-11-20T07:04:24;98253.97;;;5.07;nan
7888;BME280;3989;48.810;9.208;2022-11-20T07:06:50;98250.81;;;5.03;nan
7888;BME280;3989;48.810;9.208;2022-11-20T07:09:17;98302.22;;;5.35;nan
7888;BME280;3989;48.810;9.208;2022-11-20T07:11:44;98307.88;;;5.40;nan
7888;BME280;3989;48.810;9.208;2022-11-20T07:14:12;98295.78;;;5.37;nan
7888;BME280;3989;48.810;9.208;2022-11-20T07:16:38;98257.50;;;5.23;nan
7888;BME280;3989;48.810;9.208;2022-11-20T07:19:05;98206.63;;;4.96;nan
7888;BME280;3989;48.810;9.208;2022-11-20T07:21:32;98309.16;;;5.69;nan
7888;BME280;3989;48.810;9.208;2022-11-20T07:23:58;98310.50;;;5.73;nan
7888;BME280;3989;48.810;9.208;2022-11-20T07:26:25;98299.41;;;5.70;nan
7888;BME280;3989;48.810;9.208;2022-11-20T07:28:52;98269.59;;;5.60;nan
7888;BME280;3989;48.810;9.208;2022-11-20T07:31:20;98128.66;;;4.66;nan
7888;BME280;3989;48.810;9.208;2022-11-20T07:33:47;98316.31;;;5.77;nan
7888;BME280;3989;48.810;9.208;2022-11-20T07:36:14;98310.84;;;5.70;nan
7888;BME280;3989;48.810;9.208;2022-11-20T07:38:41;98313.00;;;5.75;nan
7888;BME280;3989;48.810;9.208;2022-11-20T07:41:07;98238.59;;;5.36;nan
7888;BME280;3989;48.810;9.208;2022-11-20T07:43:34;98324.69;;;5.90;nan
7888;BME280;3989;48.810;9.208;2022-11-20T07:46:01;98323.25;;;6.12;nan
7888;BME280;3989;48.810;9.208;2022-11-20T07:48:30;98237.22;;;5.82;nan
7888;BME280;3989;48.810;9.208;2022-11-20T07:50:57;98262.00;;;6.07;nan
7888;BME280;3989;48.810;9.208;2022-11-20T07:53:24;98316.69;;;6.56;nan
7888;BME280;3989;48.810;9.208;2022-11-20T07:55:51;98266.63;;;6.21;nan
7888;BME280;3989;48.810;9.208;2022-11-20T07:58:18;98279.88;;;6.21;nan
7888;BME280;3989;48.810;9.208;2022-11-20T08:00:45;98284.50;;;6.27;nan
7888;BME280;3989;48.810;9.208;2022-11-20T08:03:12;98331.44;;;6.51;nan
7888;BME280;3989;48.810;9.208;2022-11-20T08:05:40;98319.66;;;6.45;nan
7888;BME280;3989;48.810;9.208;2022-11-20T08:08:07;98239.13;;;5.98;nan
7888;BME280;3989;48.810;9.208;2022-11-20T08:10:33;98196.16;;;5.70;nan
7888;BME280;3989;48.810;9.208;2022-11-20T08:13:00;98264.13;;;6.11;nan
7888;BME280;3989;48.810;9.208;2022-11-20T08:15:48;98339.41;;;6.59;nan
7888;BME280;3989;48.810;9.208;2022-11-20T08:18:15;98339.25;;;6.68;nan
7888;BME280;3989;48.810;9.208;2022-11-20T08:20:44;98335.75;;;6.76;nan
7888;BME280;3989;48.810;9.208;2022-11-20T08:23:11;98333.28;;;6.82;nan
7888;BME280;3989;48.810;9.208;2022-11-20T08:25:38;98230.19;;;6.15;nan
7888;BME280;3989;48.810;9.208;2022-11-20T08:28:06;98332.94;;;6.94;nan
7888;BME280;3989;48.810;9.208;2022-11-20T08:30:33;98336.41;;;7.02;nan
7888;BME280;3989;48.810;9.208;2022-11-20T08:33:02;98209.84;;;6.23;nan
7888;BME280;3989;48.810;9.208;2022-11-20T08:35:32;98233.19;;;6.52;nan
7888;BME280;3989;48.810;9.208;2022-11-20T08:38:01;98254.06;;;6.71;nan
7888;BME280;3989;48.810;9.208;2022-11-20T08:40:27;98337.69;;;7.30;nan
7888;BME280;3989;48.810;9.208;2022-11-20T08:42:54;98334.53;;;7.43;nan
7888;BME280;3989;48.810;9.208;2022-11-20T08:45:20;98332.31;;;7.63;nan
7888;BME280;3989;48.810;9.208;2022-11-20T08:47:47;98336.28;;;7.75;nan
7888;BME280;3989;48.810;9.208;2022-11-20T08:50:15;98342.84;;;7.87;nan
7888;BME280;3989;48.810;9.208;2022-11-20T08:52:42;98333.69;;;7.98;nan
7888;BME280;3989;48.810;9.208;2022-11-20T08:55:10;98333.63;;;8.06;nan
7888;BME280;3989;48.810;9.208;2022-11-20T08:57:37;98293.59;;;7.76;nan
7888;BME280;3989;48.810;9.208;2022-11-20T09:00:05;98333.97;;;8.03;nan
7888;BME280;3989;48.810;9.208;2022-11-20T09:02:32;98313.56;;;8.03;nan
7888;BME280;3989;48.810;9.208;2022-11-20T09:04:59;98291.13;;;7.75;nan
7888;BME280;3989;48.810;9.208;2022-11-20T09:07:27;98320.41;;;7.89;nan
7888;BME280;3989;48.810;9.208;2022-11-20T09:09:54;98322.03;;;7.99;nan
7888;BME280;3989;48.810;9.208;2022-11-20T09:12:22;98319.09;;;7.93;nan
7888;BME280;3989;48.810;9.208;2022-11-20T09:14:49;98282.09;;;7.84;nan
7888;BME280;3989;48.810;9.208;2022-11-20T09:17:15;98356.41;;;8.39;nan
7888;BME280;3989;48.810;9.208;2022-11-20T09:19:42;98358.72;;;8.42;nan
7888;BME280;3989;48.810;9.208;2022-11-20T09:22:11;98355.75;;;8.37;nan
7888;BME280;3989;48.810;9.208;2022-11-20T09:24:38;98349.66;;;8.28;nan
7888;BME280;3989;48.810;9.208;2022-11-20T09:27:05;98349.50;;;8.22;nan
7888;BME280;3989;48.810;9.208;2022-11-20T09:29:33;98358.75;;;8.34;nan
7888;BME280;3989;48.810;9.208;2022-11-20T09:31:59;98369.09;;;8.29;nan
7888;BME280;3989;48.810;9.208;2022-11-20T09:34:26;98373.13;;;8.17;nan
7888;BME280;3989;48.810;9.208;2022-11-20T09:36:53;98340.34;;;7.85;nan
7888;BME280;3989;48.810;9.208;2022-11-20T09:39:20;98353.63;;;7.93;nan
7888;BME280;3989;48.810;9.208;2022-11-20T09:42:09;98346.84;;;7.83;nan
7888;BME280;3989;48.810;9.208;2022-11-20T09:44:52;98350.84;;;7.79;nan
7888;BME280;3989;48.810;9.208;2022-11-20T09:47:32;98376.19;;;7.98;nan
7888;BME280;3989;48.810;9.208;2022-11-20T09:50:19;98381.66;;;7.96;nan
7888;BME280;3989;48.810;9.208;2022-11-20T09:52:58;98379.19;;;7.95;nan
7888;BME280;3989;48.810;9.208;2022-11-20T09:55:27;98378.19;;;7.96;nan
7888;BME280;3989;48.810;9.208;2022-11-20T09:57:56;98387.19;;;7.95;nan
7888;BME280;3989;48.810;9.208;2022-11-20T10:00:27;98381.91;;;7.78;nan
7888;BME280;3989;48.810;9.208;2022-11-20T10:02:58;98380.63;;;7.58;nan
7888;BME280;3989;48.810;9.208;2022-11-20T10:05:30;98378.31;;;7.47;nan
7888;BME280;3989;48.810;9.208;2022-11-20T10:08:08;98341.06;;;7.16;nan
7888;BME280;3989;48.810;9.208;2022-11-20T10:10:42;98373.88;;;7.31;nan
7888;BME280;3989;48.810;9.208;2022-11-20T10:16:16;98381.69;;;7.33;nan
7888;BME280;3989;48.810;9.208;2022-11-20T10:19:04;98384.66;;;7.38;nan
7888;BME280;3989;48.810;9.208;2022-11-20T10:21:42;98382.00;;;7.38;nan
7888;BME280;3989;48.810;9.208;2022-11-20T10:30:09;98393.63;;;6.97;nan
7888;BME280;3989;48.810;9.208;2022-11-20T10:32:39;98392.09;;;6.70;nan
7888;BME280;3989;48.810;9.208;2022-11-20T10:35:16;98405.69;;;6.59;nan
7888;BME280;3989;48.810;9.208;2022-11-20T10:37:53;98411.94;;;6.42;nan
7888;BME280;3989;48.810;9.208;2022-11-20T10:40:29;98371.44;;;6.15;nan
7888;BME280;3989;48.810;9.208;2022-11-20T10:43:01;98393.84;;;6.29;nan
7888;BME280;3989;48.810;9.208;2022-11-20T10:45:49;98397.16;;;6.31;nan
7888;BME280;3989;48.810;9.208;2022-11-20T10:48:21;98358.84;;;6.09;nan
7888;BME280;3989;48.810;9.208;2022-11-20T10:51:07;98412.41;;;6.37;nan
7888;BME280;3989;48.810;9.208;2022-11-20T10:53:56;98326.94;;;5.85;nan
7888;BME280;3989;48.810;9.208;2022-11-20T10:56:39;98371.91;;;6.11;nan
7888;BME280;3989;48.810;9.208;2022-11-20T10:59:34;98385.00;;;6.12;nan
7888;BME280;3989;48.810;9.208;2022-11-20T11:02:15;98380.72;;;6.19;nan
7888;BME280;3989;48.810;9.208;2022-11-20T11:04:46;98358.72;;;6.27;nan
7888;BME280;3989;48.810;9.208;2022-11-20T11:07:17;98374.50;;;6.45;nan
7888;BME280;3989;48.810;9.208;2022-11-20T11:09:49;98381.00;;;6.66;nan
7888;BME280;3989;48.810;9.208;2022-11-20T11:12:17;98368.41;;;6.68;nan
7888;BME280;3989;48.810;9.208;2022-11-20T11:14:48;98360.44;;;6.60;nan
7888;BME280;3989;48.810;9.208;2022-11-20T11:17:24;98380.00;;;6.75;nan
7888;BME280;3989;48.810;9.208;2022-11-20T11:20:17;98363.13;;;6.84;nan
7888;BME280;3989;48.810;9.208;2022-11-20T11:22:47;98365.75;;;7.09;nan
7888;BME280;3989;48.810;9.208;2022-11-20T11:25:23;98336.25;;;7.12;nan
7888;BME280;3989;48.810;9.208;2022-11-20T11:27:50;98319.81;;;7.08;nan
7888;BME280;3989;48.810;9.208;2022-11-20T11:30:18;98335.91;;;7.23;nan
7888;BME280;3989;48.810;9.208;2022-11-20T11:32:49;98341.53;;;7.28;nan
7888;BME280;3989;48.810;9.208;2022-11-20T11:35:23;98344.34;;;7.26;nan
7888;BME280;3989;48.810;9.208;2022-11-20T11:37:51;98313.38;;;7.11;nan
7888;BME280;3989;48.810;9.208;2022-11-20T11:40:21;98324.97;;;7.10;nan
7888;BME280;3989;48.810;9.208;2022-11-20T11:42:52;98281.41;;;6.80;nan
7888;BME280;3989;48.810;9.208;2022-11-20T11:45:22;98309.53;;;7.05;nan
7888;BME280;3989;48.810;9.208;2022-11-20T11:47:48;98292.16;;;6.86;nan
7888;BME280;3989;48.810;9.208;2022-11-20T11:50:21;98317.16;;;7.08;nan
7888;BME280;3989;48.810;9.208;2022-11-20T11:52:54;98316.34;;;7.16;nan
7888;BME280;3989;48.810;9.208;2022-11-20T11:55:31;98287.31;;;7.14;nan
7888;BME280;3989;48.810;9.208;2022-11-20T11:58:09;98252.03;;;6.98;nan
7888;BME280;3989;48.810;9.208;2022-11-20T12:00:41;98295.41;;;7.29;nan
7888;BME280;3989;48.810;9.208;2022-11-20T12:03:14;98304.38;;;7.28;nan
7888;BME280;3989;48.810;9.208;2022-11-20T12:05:49;98241.25;;;7.07;nan
7888;BME280;3989;48.810;9.208;2022-11-20T12:08:23;98301.09;;;7.65;nan
7888;BME280;3989;48.810;9.208;2022-11-20T12:10:53;98282.06;;;7.53;nan
7888;BME280;3989;48.810;9.208;2022-11-20T12:13:32;98282.44;;;7.34;nan
7888;BME280;3989;48.810;9.208;2022-11-20T12:16:03;98289.91;;;7.30;nan
7888;BME280;3989;48.810;9.208;2022-11-20T12:18:30;98284.00;;;7.20;nan
7888;BME280;3989;48.810;9.208;2022-11-20T12:21:07;98274.88;;;7.23;nan
7888;BME280;3989;48.810;9.208;2022-11-20T12:23:47;98288.63;;;7.18;nan
7888;BME280;3989;48.810;9.208;2022-11-20T12:26:39;98289.81;;;7.16;nan
7888;BME280;3989;48.810;9.208;2022-11-20T12:29:16;98289.38;;;6.88;nan
7888;BME280;3989;48.810;9.208;2022-11-20T12:31:57;98288.03;;;6.68;nan
7888;BME280;3989;48.810;9.208;2022-11-20T12:34:44;98291.19;;;6.71;nan
7888;BME280;3989;48.810;9.208;2022-11-20T12:37:28;98283.72;;;6.67;nan
7888;BME280;3989;48.810;9.208;2022-11-20T12:40:02;98273.94;;;6.67;nan
7888;BME280;3989;48.810;9.208;2022-11-20T12:42:44;98264.50;;;6.57;nan
7888;BME280;3989;48.810;9.208;2022-11-20T12:48:42;98266.00;;;6.67;nan
7888;BME280;3989;48.810;9.208;2022-11-20T12:51:37;98288.53;;;6.88;nan
7888;BME280;3989;48.810;9.208;2022-11-20T12:54:44;98288.00;;;7.00;nan
7888;BME280;3989;48.810;9.208;2022-11-20T12:57:18;98270.06;;;7.18;nan
7888;BME280;3989;48.810;9.208;2022-11-20T13:00:01;98285.00;;;7.66;nan
7888;BME280;3989;48.810;9.208;2022-11-20T13:02:34;98249.22;;;7.85;nan
7888;BME280;3989;48.810;9.208;2022-11-20T13:05:15;98275.81;;;8.38;nan
7888;BME280;3989;48.810;9.208;2022-11-20T13:07:44;98281.97;;;8.62;nan
7888;BME280;3989;48.810;9.208;2022-11-20T13:10:19;98285.97;;;8.80;nan
7888;BME280;3989;48.810;9.208;2022-11-20T13:12:53;98277.66;;;8.98;nan
7888;BME280;3989;48.810;9.208;2022-11-20T13:15:42;98278.22;;;9.08;nan
7888;BME280;3989;48.810;9.208;2022-11-20T13:18:11;98259.31;;;9.03;nan
7888;BME280;3989;48.810;9.208;2022-11-20T13:20:42;98260.19;;;8.95;nan
7888;BME280;3989;48.810;9.208;2022-11-20T13:23:09;98270.31;;;9.15;nan
7888;BME280;3989;48.810;9.208;2022-11-20T13:25:39;98262.59;;;9.05;nan
7888;BME280;3989;48.810;9.208;2022-11-20T13:28:26;98192.09;;;8.72;nan
7888;BME280;3989;48.810;9.208;2022-11-20T13:30:54;98269.84;;;9.11;nan
7888;BME280;3989;48.810;9.208;2022-11-20T13:33:25;98240.09;;;8.78;nan
7888;BME280;3989;48.810;9.208;2022-11-20T13:35:56;98268.81;;;8.83;nan
7888;BME280;3989;48.810;9.208;2022-11-20T13:38:23;98270.72;;;8.74;nan
7888;BME280;3989;48.810;9.208;2022-11-20T13:40:53;98268.13;;;8.66;nan
7888;BME280;3989;48.810;9.208;2022-11-20T13:43:27;98258.03;;;8.62;nan
7888;BME280;3989;48.810;9.208;2022-11-20T13:45:56;98255.25;;;8.55;nan
7888;BME280;3989;48.810;9.208;2022-11-20T13:48:25;98255.63;;;8.52;nan
7888;BME280;3989;48.810;9.208;2022-11-20T13:51:07;98256.44;;;8.53;nan
7888;BME280;3989;48.810;9.208;2022-11-20T13:53:54;98250.06;;;8.62;nan
7888;BME280;3989;48.810;9.208;2022-11-20T13:56:40;98250.75;;;8.78;nan
7888;BME280;3989;48.810;9.208;2022-11-20T13:59:17;98229.88;;;8.67;nan
7888;BME280;3989;48.810;9.208;2022-11-20T14:01:53;98255.22;;;8.78;nan
7888;BME280;3989;48.810;9.208;2022-11-20T14:04:27;98268.53;;;8.78;nan
7888;BME280;3989;48.810;9.208;2022-11-20T14:06:56;98263.31;;;8.84;nan
7888;BME280;3989;48.810;9.208;2022-11-20T14:09:48;98253.19;;;8.65;nan
7888;BME280;3989;48.810;9.208;2022-11-20T14:12:31;98270.16;;;8.41;nan
7888;BME280;3989;48.810;9.208;2022-11-20T14:15:05;98220.59;;;7.95;nan
7888;BME280;3989;48.810;9.208;2022-11-20T14:17:34;98264.97;;;8.17;nan
7888;BME280;3989;48.810;9.208;2022-11-20T14:20:04;98258.38;;;8.05;nan
7888;BME280;3989;48.810;9.208;2022-11-20T14:22:31;98254.69;;;7.91;nan
7888;BME280;3989;48.810;9.208;2022-11-20T14:25:06;98193.44;;;7.54;nan
7888;BME280;3989;48.810;9.208;2022-11-20T14:27:51;98261.34;;;7.87;nan